createdAt,value
2019-03-27T00:01:04.957Z,8.90
2019-03-27T00:03:36.057Z,8.90
2019-03-27T00:06:07.545Z,8.80
2019-03-27T00:08:38.723Z,8.90
2019-03-27T00:11:09.804Z,8.90
2019-03-27T00:13:40.828Z,8.90
2019-03-27T00:16:12.100Z,8.90
2019-03-27T00:18:43.243Z,8.80
2019-03-27T00:21:14.311Z,8.80
2019-03-27T00:23:45.745Z,8.80
2019-03-27T00:26:16.866Z,8.80
2019-03-27T00:28:49.286Z,8.80
2019-03-27T00:31:20.540Z,8.80
2019-03-27T00:33:51.563Z,8.90
2019-03-27T00:36:23.037Z,8.90
2019-03-27T00:38:54.091Z,8.90
2019-03-27T00:41:25.455Z,8.80
2019-03-27T00:43:56.868Z,8.90
2019-03-27T00:46:27.864Z,8.90
2019-03-27T00:48:59.290Z,8.90
2019-03-27T00:51:30.814Z,8.90
2019-03-27T00:54:01.914Z,9.00
2019-03-27T00:56:32.961Z,9.00
2019-03-27T00:59:04.719Z,8.90
2019-03-27T01:01:35.998Z,8.90
2019-03-27T01:04:07.185Z,8.90
2019-03-27T01:06:38.556Z,8.80
2019-03-27T01:09:10.967Z,8.80
2019-03-27T01:11:42.110Z,8.80
2019-03-27T01:14:13.419Z,8.90
2019-03-27T01:16:44.530Z,8.90
2019-03-27T01:19:15.703Z,8.80
2019-03-27T01:21:46.770Z,8.80
2019-03-27T01:24:18.077Z,8.80
2019-03-27T01:26:49.059Z,8.80
2019-03-27T01:29:20.382Z,8.80
2019-03-27T01:31:51.721Z,8.80
2019-03-27T01:34:22.944Z,8.80
2019-03-27T01:36:53.969Z,8.80
2019-03-27T01:39:25.126Z,8.80
2019-03-27T01:41:56.456Z,8.80
2019-03-27T01:44:27.592Z,8.80
2019-03-27T01:46:58.725Z,8.60
2019-03-27T01:49:29.876Z,8.80
2019-03-27T01:52:00.961Z,8.80
2019-03-27T01:54:32.044Z,8.90
2019-03-27T01:57:03.064Z,8.90
2019-03-27T01:59:34.232Z,9.00
2019-03-27T02:02:05.486Z,8.90
2019-03-27T02:04:36.430Z,8.90
2019-03-27T02:07:07.557Z,8.90
2019-03-27T02:09:38.686Z,9.00
2019-03-27T02:12:09.993Z,9.00
2019-03-27T02:14:41.439Z,9.00
2019-03-27T02:17:12.804Z,8.90
2019-03-27T02:19:44.913Z,8.80
2019-03-27T02:22:16.048Z,8.80
2019-03-27T02:24:47.359Z,8.90
2019-03-27T02:27:18.265Z,8.90
2019-03-27T02:29:49.476Z,8.90
2019-03-27T02:32:21.086Z,8.80
2019-03-27T02:34:52.313Z,8.80
2019-03-27T02:37:23.801Z,8.80
2019-03-27T02:39:54.893Z,8.60
2019-03-27T02:42:26.064Z,8.70
2019-03-27T02:44:57.191Z,8.40
2019-03-27T02:47:28.280Z,8.50
2019-03-27T02:49:59.648Z,8.20
2019-03-27T02:52:30.900Z,8.30
2019-03-27T02:55:02.188Z,8.20
2019-03-27T02:57:33.401Z,8.10
2019-03-27T03:00:05.413Z,8.10
2019-03-27T03:02:55.289Z,8.20
2019-03-27T03:05:26.367Z,8.30
2019-03-27T03:07:57.721Z,8.20
2019-03-27T03:10:28.806Z,8.10
2019-03-27T03:12:59.817Z,8.10
2019-03-27T03:15:30.930Z,8.20
2019-03-27T03:18:02.537Z,8.40
2019-03-27T03:20:33.448Z,8.20
2019-03-27T03:23:04.584Z,8.20
2019-03-27T03:25:36.170Z,8.20
2019-03-27T03:28:07.387Z,8.10
2019-03-27T03:30:38.405Z,8.30
2019-03-27T03:33:09.716Z,8.10
2019-03-27T03:35:41.168Z,8.20
2019-03-27T03:38:12.274Z,8.30
2019-03-27T03:40:43.576Z,8.30
2019-03-27T03:43:14.722Z,8.10
2019-03-27T03:45:46.090Z,7.90
2019-03-27T03:48:17.580Z,8.00
2019-03-27T03:50:51.410Z,8.20
2019-03-27T03:53:22.850Z,8.10
2019-03-27T03:55:56.103Z,8.10
2019-03-27T03:58:29.214Z,8.30
2019-03-27T04:01:02.930Z,8.40
2019-03-27T04:03:36.953Z,7.90
2019-03-27T04:06:08.172Z,8.10
2019-03-27T04:08:39.366Z,8.20
2019-03-27T04:11:12.527Z,8.20
2019-03-27T04:13:44.404Z,8.00
2019-03-27T04:16:15.371Z,8.00
2019-03-27T04:18:46.381Z,7.70
2019-03-27T04:21:17.796Z,7.70
2019-03-27T04:23:48.821Z,7.80
2019-03-27T04:26:20.044Z,7.50
2019-03-27T04:28:51.540Z,7.80
2019-03-27T04:31:22.768Z,7.80
2019-03-27T04:33:53.825Z,7.80
2019-03-27T04:36:25.141Z,7.80
2019-03-27T04:38:56.281Z,8.00
2019-03-27T04:41:27.312Z,8.10
2019-03-27T04:43:58.498Z,7.60
2019-03-27T04:46:29.981Z,7.60
2019-03-27T04:49:01.000Z,7.60
2019-03-27T04:51:32.633Z,7.50
2019-03-27T04:54:03.701Z,7.40
2019-03-27T04:56:34.738Z,7.60
2019-03-27T04:59:05.761Z,7.70
2019-03-27T05:01:36.895Z,7.70
2019-03-27T05:04:08.816Z,7.60
2019-03-27T05:06:39.852Z,7.80
2019-03-27T05:09:10.871Z,7.70
2019-03-27T05:11:41.985Z,7.60
2019-03-27T05:14:13.198Z,7.50
2019-03-27T05:16:44.304Z,7.70
2019-03-27T05:19:15.357Z,7.80
2019-03-27T05:21:54.433Z,7.80
2019-03-27T05:24:25.706Z,7.80
2019-03-27T05:26:56.725Z,7.80
2019-03-27T05:29:27.705Z,7.70
2019-03-27T05:31:59.184Z,7.70
2019-03-27T05:34:30.441Z,7.70
2019-03-27T05:37:01.462Z,7.70
2019-03-27T05:39:32.534Z,7.70
2019-03-27T05:42:03.973Z,7.80
2019-03-27T05:44:35.302Z,7.80
2019-03-27T05:47:06.358Z,7.90
2019-03-27T05:49:37.475Z,7.90
2019-03-27T05:52:08.903Z,7.80
2019-03-27T05:54:39.865Z,7.50
2019-03-27T05:57:11.081Z,7.60
2019-03-27T05:59:42.060Z,7.70
2019-03-27T06:02:16.785Z,7.40
2019-03-27T06:04:48.181Z,7.50
2019-03-27T06:07:19.233Z,7.60
2019-03-27T06:09:50.632Z,7.70
2019-03-27T06:12:21.769Z,7.90
2019-03-27T06:14:53.186Z,7.90
2019-03-27T06:17:24.723Z,7.90
2019-03-27T06:19:55.828Z,8.00
2019-03-27T06:22:26.928Z,8.20
2019-03-27T06:24:58.292Z,8.10
2019-03-27T06:27:30.090Z,8.20
2019-03-27T06:30:01.149Z,8.50
2019-03-27T06:32:32.310Z,8.30
2019-03-27T06:35:03.412Z,8.20
2019-03-27T06:37:34.822Z,8.00
2019-03-27T06:40:06.712Z,8.40
2019-03-27T06:42:37.798Z,8.60
2019-03-27T06:45:09.849Z,8.80
2019-03-27T06:47:40.980Z,8.40
2019-03-27T06:50:12.495Z,8.70
2019-03-27T06:52:43.619Z,8.90
2019-03-27T06:55:14.970Z,8.90
2019-03-27T06:57:46.196Z,9.10
2019-03-27T07:00:17.695Z,9.30
2019-03-27T07:02:49.439Z,9.50
2019-03-27T07:05:20.562Z,9.20
2019-03-27T07:07:51.824Z,9.40
2019-03-27T07:10:23.189Z,9.50
2019-03-27T07:12:54.414Z,9.30
2019-03-27T07:15:25.420Z,9.40
2019-03-27T07:17:56.605Z,8.70
2019-03-27T07:20:27.725Z,9.10
2019-03-27T07:22:58.764Z,9.40
2019-03-27T07:25:30.104Z,9.60
2019-03-27T07:28:01.135Z,9.70
2019-03-27T07:30:32.078Z,10.00
2019-03-27T07:33:03.119Z,10.10
2019-03-27T07:35:34.415Z,10.30
2019-03-27T07:38:05.626Z,10.30
2019-03-27T07:40:36.651Z,10.40
2019-03-27T07:43:08.070Z,10.00
2019-03-27T07:45:39.239Z,9.90
2019-03-27T07:48:11.439Z,9.70
2019-03-27T07:50:42.533Z,10.00
2019-03-27T07:53:13.717Z,9.90
2019-03-27T07:55:45.261Z,10.10
2019-03-27T07:58:16.363Z,10.30
2019-03-27T08:00:47.463Z,10.00
2019-03-27T08:03:18.887Z,10.10
2019-03-27T08:06:09.139Z,10.40
2019-03-27T08:08:40.177Z,10.80
2019-03-27T08:15:14.679Z,11.40
2019-03-27T08:17:46.744Z,11.50
2019-03-27T08:20:19.519Z,11.60
2019-03-27T08:22:50.902Z,12.00
2019-03-27T08:25:21.907Z,11.90
2019-03-27T08:27:53.061Z,12.20
2019-03-27T08:30:24.550Z,12.30
2019-03-27T08:32:55.896Z,12.50
2019-03-27T08:35:27.264Z,11.90
2019-03-27T08:37:58.365Z,11.60
2019-03-27T08:40:29.366Z,11.30
2019-03-27T08:43:00.568Z,11.50
2019-03-27T08:45:31.676Z,11.40
2019-03-27T08:48:02.752Z,11.60
2019-03-27T08:50:33.926Z,11.70
2019-03-27T08:53:05.080Z,12.00
2019-03-27T08:55:36.532Z,12.10
2019-03-27T08:58:07.727Z,12.30
2019-03-27T09:00:50.140Z,12.30
2019-03-27T09:03:21.570Z,12.40
2019-03-27T09:05:52.703Z,11.90
2019-03-27T09:08:23.961Z,11.80
2019-03-27T09:10:55.370Z,11.80
2019-03-27T09:13:26.526Z,11.50
2019-03-27T09:15:57.951Z,11.60
2019-03-27T09:18:29.497Z,12.10
2019-03-27T09:21:00.871Z,11.90
2019-03-27T09:23:31.919Z,11.80
2019-03-27T09:26:03.275Z,12.30
2019-03-27T09:28:34.304Z,13.00
2019-03-27T09:31:05.484Z,13.30
2019-03-27T09:33:36.520Z,13.60
2019-03-27T09:36:07.998Z,13.50
2019-03-27T09:38:39.580Z,13.00
2019-03-27T09:41:10.957Z,12.70
2019-03-27T09:43:42.029Z,12.60
2019-03-27T09:46:13.429Z,12.60
2019-03-27T09:48:44.428Z,13.20
2019-03-27T09:51:15.472Z,12.50
2019-03-27T09:53:46.790Z,12.80
2019-03-27T09:56:19.529Z,13.50
2019-03-27T09:58:50.972Z,13.90
2019-03-27T10:01:22.372Z,14.10
2019-03-27T10:03:53.523Z,13.30
2019-03-27T10:06:24.655Z,13.10
2019-03-27T10:08:55.709Z,13.50
2019-03-27T10:11:26.860Z,13.50
2019-03-27T10:13:58.364Z,13.90
2019-03-27T10:16:29.456Z,14.70
2019-03-27T10:19:00.395Z,15.00
2019-03-27T10:21:31.748Z,15.10
2019-03-27T10:24:02.859Z,15.00
2019-03-27T10:26:33.946Z,14.80
2019-03-27T10:29:05.056Z,14.60
2019-03-27T10:31:36.053Z,14.40
2019-03-27T10:34:07.434Z,14.20
2019-03-27T10:36:38.483Z,13.10
2019-03-27T10:39:10.554Z,13.10
2019-03-27T10:41:41.675Z,13.40
2019-03-27T10:44:12.763Z,13.80
2019-03-27T10:46:43.872Z,14.40
2019-03-27T10:49:14.911Z,13.70
2019-03-27T10:51:46.387Z,14.40
2019-03-27T10:54:17.474Z,14.20
2019-03-27T10:56:48.503Z,14.10
2019-03-27T10:59:20.244Z,14.50
2019-03-27T11:01:51.697Z,14.40
2019-03-27T11:04:22.886Z,14.10
2019-03-27T11:06:53.937Z,14.10
2019-03-27T11:09:24.946Z,13.60
2019-03-27T11:11:56.323Z,14.10
2019-03-27T11:14:37.905Z,14.00
2019-03-27T11:17:00.761Z,14.10
2019-03-27T11:19:33.679Z,14.10
2019-03-27T11:22:05.140Z,14.30
2019-03-27T11:24:36.411Z,14.40
2019-03-27T11:27:07.524Z,14.60
2019-03-27T11:29:39.200Z,14.90
2019-03-27T11:32:10.492Z,14.90
2019-03-27T11:34:42.027Z,14.70
2019-03-27T11:37:13.393Z,14.30
2019-03-27T11:39:44.533Z,14.50
2019-03-27T11:42:15.609Z,13.90
2019-03-27T11:44:46.604Z,14.20
2019-03-27T11:47:17.623Z,14.50
2019-03-27T11:49:49.041Z,15.00
2019-03-27T11:52:20.133Z,15.00
2019-03-27T11:54:51.428Z,15.20
2019-03-27T11:57:22.574Z,15.00
2019-03-27T11:59:54.518Z,15.20
2019-03-27T12:02:25.677Z,15.40
2019-03-27T12:04:56.811Z,15.50
2019-03-27T12:07:27.939Z,15.60
2019-03-27T12:09:59.414Z,15.10
2019-03-27T12:12:31.169Z,14.80
2019-03-27T12:15:02.455Z,14.80
2019-03-27T12:17:33.528Z,15.00
2019-03-27T12:20:05.359Z,15.00
2019-03-27T12:22:36.766Z,15.10
2019-03-27T12:25:09.463Z,15.00
2019-03-27T12:27:40.902Z,14.20
2019-03-27T12:30:12.159Z,14.30
2019-03-27T12:32:43.275Z,15.00
2019-03-27T12:35:14.618Z,15.20
2019-03-27T12:37:46.032Z,15.20
2019-03-27T12:40:17.344Z,15.00
2019-03-27T12:42:48.350Z,14.70
2019-03-27T12:45:19.554Z,15.40
2019-03-27T12:47:50.999Z,15.00
2019-03-27T12:50:22.139Z,15.00
2019-03-27T12:52:53.261Z,14.90
2019-03-27T12:55:24.393Z,14.90
2019-03-27T12:57:55.406Z,15.40
2019-03-27T13:00:26.762Z,15.60
2019-03-27T13:02:57.844Z,15.90
2019-03-27T13:05:29.089Z,15.50
2019-03-27T13:08:00.264Z,15.80
2019-03-27T13:10:31.856Z,15.20
2019-03-27T13:13:02.924Z,15.20
2019-03-27T13:15:34.263Z,15.50
2019-03-27T13:18:05.636Z,15.90
2019-03-27T13:20:37.279Z,16.00
2019-03-27T13:23:08.593Z,15.90
2019-03-27T13:25:39.695Z,15.70
2019-03-27T13:28:10.917Z,15.80
2019-03-27T13:30:42.546Z,15.00
2019-03-27T13:33:14.226Z,15.80
2019-03-27T13:35:45.373Z,15.30
2019-03-27T13:38:16.545Z,15.10
2019-03-27T13:40:47.914Z,14.70
2019-03-27T13:43:19.073Z,15.40
2019-03-27T13:45:50.089Z,15.80
2019-03-27T13:48:21.316Z,15.80
2019-03-27T13:50:52.703Z,15.90
2019-03-27T13:53:23.875Z,15.40
2019-03-27T13:55:55.303Z,15.10
2019-03-27T13:58:27.300Z,14.50
2019-03-27T14:00:58.391Z,15.10
2019-03-27T14:03:29.877Z,15.10
2019-03-27T14:06:01.357Z,15.20
2019-03-27T14:08:32.912Z,15.00
2019-03-27T14:11:04.241Z,14.50
2019-03-27T14:13:35.623Z,14.50
2019-03-27T14:16:08.181Z,14.90
2019-03-27T14:18:39.787Z,14.70
2019-03-27T14:21:11.021Z,14.40
2019-03-27T14:23:42.558Z,14.50
2019-03-27T14:26:13.701Z,14.40
2019-03-27T14:28:45.307Z,14.90
2019-03-27T14:31:16.604Z,15.00
2019-03-27T14:33:47.692Z,15.10
2019-03-27T14:36:19.242Z,15.20
2019-03-27T14:38:50.420Z,15.10
2019-03-27T14:41:21.517Z,15.00
2019-03-27T14:43:52.672Z,15.00
2019-03-27T14:46:25.762Z,15.00
2019-03-27T14:48:56.617Z,15.00
2019-03-27T14:51:31.935Z,14.80
2019-03-27T14:54:03.276Z,14.80
2019-03-27T14:56:34.378Z,15.00
2019-03-27T14:59:05.565Z,14.80
2019-03-27T15:01:36.920Z,14.50
2019-03-27T15:04:09.178Z,14.30
2019-03-27T15:06:40.796Z,13.90
2019-03-27T15:09:12.021Z,14.00
2019-03-27T15:11:43.461Z,13.90
2019-03-27T15:14:14.888Z,13.80
2019-03-27T15:16:45.970Z,13.90
2019-03-27T15:19:17.391Z,13.80
2019-03-27T15:21:48.505Z,13.90
2019-03-27T15:24:20.733Z,14.10
2019-03-27T15:26:51.946Z,14.10
2019-03-27T15:29:23.521Z,14.30
2019-03-27T15:31:55.263Z,14.10
2019-03-27T15:34:26.499Z,14.40
2019-03-27T15:36:57.640Z,14.50
2019-03-27T15:39:29.135Z,13.90
2019-03-27T15:42:01.488Z,14.30
2019-03-27T15:44:32.692Z,14.40
2019-03-27T15:47:04.332Z,14.30
2019-03-27T15:49:38.886Z,14.10
2019-03-27T15:52:10.109Z,14.10
2019-03-27T15:54:41.620Z,14.30
2019-03-27T15:57:12.870Z,14.60
2019-03-27T15:59:44.001Z,14.50
2019-03-27T16:02:15.377Z,14.50
2019-03-27T16:04:46.821Z,14.60
2019-03-27T16:07:18.049Z,14.40
2019-03-27T16:09:49.255Z,14.40
2019-03-27T16:12:20.442Z,14.40
2019-03-27T16:14:51.848Z,14.30
2019-03-27T16:17:22.898Z,14.50
2019-03-27T16:19:53.968Z,14.40
2019-03-27T16:22:25.601Z,14.30
2019-03-27T16:24:56.790Z,14.40
2019-03-27T16:27:27.921Z,14.20
2019-03-27T16:29:59.444Z,14.20
2019-03-27T16:32:30.918Z,14.30
2019-03-27T16:35:02.555Z,14.30
2019-03-27T16:37:33.459Z,14.30
2019-03-27T16:40:04.960Z,14.20
2019-03-27T16:42:36.084Z,14.30
2019-03-27T16:45:08.539Z,14.20
2019-03-27T16:47:39.820Z,14.20
2019-03-27T16:50:11.951Z,14.30
2019-03-27T16:52:43.545Z,14.30
2019-03-27T16:55:15.065Z,14.30
2019-03-27T16:57:46.199Z,14.20
2019-03-27T17:00:17.606Z,14.30
2019-03-27T17:02:49.107Z,14.30
2019-03-27T17:05:20.606Z,14.20
2019-03-27T17:07:51.821Z,14.20
2019-03-27T17:10:22.950Z,14.20
2019-03-27T17:12:54.009Z,14.30
2019-03-27T17:15:25.174Z,14.20
2019-03-27T17:17:56.484Z,14.20
2019-03-27T17:20:27.699Z,14.20
2019-03-27T17:22:59.053Z,14.10
2019-03-27T17:25:30.084Z,14.20
2019-03-27T17:28:01.382Z,13.80
2019-03-27T17:30:32.603Z,13.80
2019-03-27T17:33:03.677Z,13.80
2019-03-27T17:35:34.735Z,13.90
2019-03-27T17:38:05.908Z,13.40
2019-03-27T17:40:37.099Z,13.70
2019-03-27T17:43:08.225Z,13.80
2019-03-27T17:45:39.568Z,13.80
2019-03-27T17:48:10.720Z,13.90
2019-03-27T17:50:42.855Z,13.90
2019-03-27T17:53:14.032Z,13.70
2019-03-27T17:55:45.186Z,13.40
2019-03-27T17:58:16.489Z,13.60
2019-03-27T18:00:56.298Z,13.50
2019-03-27T18:03:27.762Z,13.50
2019-03-27T18:05:58.892Z,13.60
2019-03-27T18:08:29.975Z,13.70
2019-03-27T18:11:01.385Z,13.50
2019-03-27T18:13:32.756Z,13.50
2019-03-27T18:16:03.921Z,13.40
2019-03-27T18:18:35.054Z,13.50
2019-03-27T18:21:06.245Z,13.40
2019-03-27T18:23:46.032Z,13.40
2019-03-27T18:26:10.720Z,13.20
2019-03-27T18:28:41.876Z,13.20
2019-03-27T18:31:13.370Z,13.30
2019-03-27T18:33:45.269Z,13.30
2019-03-27T18:36:16.921Z,13.20
2019-03-27T18:38:47.984Z,13.40
2019-03-27T18:41:19.206Z,13.50
2019-03-27T18:43:50.881Z,13.50
2019-03-27T18:46:22.104Z,13.60
2019-03-27T18:48:53.301Z,13.50
2019-03-27T18:51:25.512Z,13.50
2019-03-27T18:53:59.823Z,13.20
2019-03-27T18:56:29.675Z,13.30
2019-03-27T18:59:00.831Z,13.40
2019-03-27T19:01:32.149Z,13.40
2019-03-27T19:04:03.368Z,13.30
2019-03-27T19:06:34.788Z,13.20
2019-03-27T19:09:08.749Z,13.40
2019-03-27T19:11:40.090Z,13.40
2019-03-27T19:14:11.132Z,13.50
2019-03-27T19:16:42.228Z,13.30
2019-03-27T19:19:13.733Z,13.10
2019-03-27T19:21:44.873Z,13.30
2019-03-27T19:24:17.002Z,13.40
2019-03-27T19:26:48.581Z,13.10
2019-03-27T19:29:19.756Z,13.20
2019-03-27T19:31:52.914Z,13.30
2019-03-27T19:34:24.094Z,13.00
2019-03-27T19:36:55.325Z,13.10
2019-03-27T19:39:26.768Z,13.10
2019-03-27T19:41:58.083Z,13.30
2019-03-27T19:44:29.277Z,13.30
2019-03-27T19:47:00.435Z,13.20
2019-03-27T19:49:32.451Z,13.30
2019-03-27T19:52:04.017Z,13.10
2019-03-27T19:54:35.812Z,13.00
2019-03-27T19:57:06.825Z,13.10
2019-03-27T19:59:42.039Z,13.00
2019-03-27T20:02:13.220Z,13.00
2019-03-27T20:04:44.547Z,13.10
2019-03-27T20:07:16.094Z,13.20
2019-03-27T20:09:47.337Z,13.00
2019-03-27T20:12:20.468Z,13.00
2019-03-27T20:14:51.623Z,13.10
2019-03-27T20:17:22.627Z,13.00
2019-03-27T20:19:53.803Z,13.00
2019-03-27T20:22:24.928Z,12.90
2019-03-27T20:24:56.172Z,13.00
2019-03-27T20:27:27.547Z,12.80
2019-03-27T20:29:58.855Z,12.80
2019-03-27T20:32:29.963Z,12.70
2019-03-27T20:35:01.109Z,12.80
2019-03-27T20:37:32.309Z,12.70
2019-03-27T20:40:03.541Z,12.60
2019-03-27T20:42:35.117Z,12.40
2019-03-27T20:45:07.017Z,12.60
2019-03-27T20:47:38.005Z,12.60
2019-03-27T20:50:09.720Z,12.70
2019-03-27T20:52:40.782Z,12.80
2019-03-27T20:55:12.203Z,12.60
2019-03-27T20:57:43.373Z,12.70
2019-03-27T21:00:15.546Z,12.80
2019-03-27T21:02:47.780Z,12.80
2019-03-27T21:05:19.451Z,12.80
2019-03-27T21:07:50.542Z,12.70
2019-03-27T21:10:22.110Z,12.80
2019-03-27T21:12:53.302Z,12.80
2019-03-27T21:15:24.812Z,12.80
2019-03-27T21:17:56.226Z,12.80
2019-03-27T21:20:28.307Z,12.80
2019-03-27T21:22:59.361Z,12.80
2019-03-27T21:25:30.444Z,12.80
2019-03-27T21:28:02.150Z,12.90
2019-03-27T21:30:33.315Z,12.80
2019-03-27T21:33:04.469Z,12.90
2019-03-27T21:35:35.763Z,12.90
2019-03-27T21:38:06.856Z,12.90
2019-03-27T21:40:39.368Z,13.00
2019-03-27T21:43:10.441Z,13.00
2019-03-27T21:45:42.178Z,13.00
2019-03-27T21:48:13.349Z,13.00
2019-03-27T21:50:44.817Z,13.00
2019-03-27T21:53:15.886Z,13.00
2019-03-27T21:55:47.319Z,12.90
2019-03-27T21:58:18.419Z,13.00
2019-03-27T22:00:49.449Z,12.90
2019-03-27T22:03:21.575Z,12.80
2019-03-27T22:05:52.617Z,12.80
2019-03-27T22:08:23.622Z,12.90
2019-03-27T22:10:55.085Z,12.90
2019-03-27T22:13:26.189Z,12.90
2019-03-27T22:15:58.285Z,12.80
2019-03-27T22:18:29.467Z,12.80
2019-03-27T22:21:00.991Z,12.70
2019-03-27T22:23:32.265Z,12.60
2019-03-27T22:26:03.594Z,12.70
2019-03-27T22:28:34.676Z,12.80
2019-03-27T22:31:06.206Z,12.80
2019-03-27T22:33:37.144Z,12.80
2019-03-27T22:36:12.694Z,12.60
2019-03-27T22:38:44.190Z,12.60
2019-03-27T22:41:15.272Z,12.60
2019-03-27T22:43:46.208Z,12.60
2019-03-27T22:46:17.607Z,12.60
2019-03-27T22:48:48.647Z,12.30
2019-03-27T22:51:19.676Z,12.40
2019-03-27T22:53:51.056Z,12.50
2019-03-27T22:56:22.207Z,12.40
2019-03-27T22:58:53.333Z,12.40
2019-03-27T23:01:24.725Z,12.50
2019-03-27T23:04:01.705Z,12.60
2019-03-27T23:06:33.051Z,12.60
2019-03-27T23:09:04.817Z,12.50
2019-03-27T23:11:36.357Z,12.50
2019-03-27T23:14:07.443Z,12.50
2019-03-27T23:16:38.898Z,12.50
2019-03-27T23:19:10.037Z,12.50
2019-03-27T23:21:41.485Z,12.50
2019-03-27T23:24:12.807Z,12.50
2019-03-27T23:26:44.484Z,12.40
2019-03-27T23:29:15.538Z,12.40
2019-03-27T23:31:46.610Z,12.40
2019-03-27T23:34:17.722Z,12.40
2019-03-27T23:36:48.855Z,12.40
2019-03-27T23:39:19.998Z,12.30
2019-03-27T23:41:51.033Z,12.30
2019-03-27T23:44:23.068Z,12.20
2019-03-27T23:46:54.159Z,12.20
2019-03-27T23:49:25.540Z,12.20
2019-03-27T23:51:57.256Z,12.20
2019-03-27T23:54:28.468Z,12.20
2019-03-27T23:57:00.322Z,12.10
2019-03-27T23:59:31.766Z,12.10
